createdAt,value
2018-05-14T00:02:21.794Z,99.90
2018-05-14T00:06:24.537Z,99.90
2018-05-14T00:10:27.353Z,99.90
2018-05-14T00:14:30.861Z,99.90
2018-05-14T00:18:33.668Z,99.90
2018-05-14T00:22:36.412Z,99.90
2018-05-14T00:26:39.222Z,99.90
2018-05-14T00:30:41.957Z,99.90
2018-05-14T00:34:44.685Z,99.90
2018-05-14T00:38:47.475Z,99.90
2018-05-14T00:42:50.292Z,99.90
2018-05-14T00:46:55.027Z,99.90
2018-05-14T00:50:58.506Z,99.90
2018-05-14T00:55:12.898Z,99.90
2018-05-14T00:59:16.387Z,99.90
2018-05-14T01:03:19.283Z,99.90
2018-05-14T01:07:23.098Z,99.90
2018-05-14T01:11:25.915Z,99.90
2018-05-14T01:15:28.645Z,99.90
2018-05-14T01:19:31.488Z,99.90
2018-05-14T01:23:34.225Z,99.90
2018-05-14T01:27:37.738Z,99.90
2018-05-14T01:31:44.963Z,99.90
2018-05-14T01:35:47.699Z,99.90
2018-05-14T01:39:52.766Z,99.90
2018-05-14T01:43:56.354Z,99.90
2018-05-14T01:48:00.309Z,99.90
2018-05-14T01:52:03.077Z,99.90
2018-05-14T01:56:06.016Z,99.90
2018-05-14T02:00:09.566Z,99.90
2018-05-14T02:04:12.302Z,99.90
2018-05-14T02:08:15.018Z,99.90
2018-05-14T02:12:17.885Z,99.90
2018-05-14T02:16:20.667Z,99.90
2018-05-14T02:20:23.379Z,99.90
2018-05-14T02:24:26.161Z,99.90
2018-05-14T02:28:28.877Z,99.90
2018-05-14T02:32:31.605Z,99.90
2018-05-14T02:36:35.214Z,99.90
2018-05-14T02:40:38.459Z,99.90
2018-05-14T02:44:41.181Z,99.90
2018-05-14T02:48:44.750Z,99.90
2018-05-14T02:52:47.546Z,99.90
2018-05-14T02:56:50.410Z,99.90
2018-05-14T03:00:53.141Z,99.90
2018-05-14T03:04:56.097Z,99.90
2018-05-14T03:08:59.606Z,99.90
2018-05-14T03:13:02.387Z,99.90
2018-05-14T03:17:05.150Z,99.90
2018-05-14T03:21:07.986Z,99.90
2018-05-14T03:25:10.771Z,99.90
2018-05-14T03:29:13.549Z,99.90
2018-05-14T03:33:17.093Z,99.90
2018-05-14T03:37:19.899Z,99.90
2018-05-14T03:41:22.637Z,99.90
2018-05-14T03:45:25.350Z,99.90
2018-05-14T03:49:28.967Z,99.90
2018-05-14T03:53:31.772Z,99.90
2018-05-14T03:57:35.341Z,99.90
2018-05-14T04:01:51.071Z,99.90
2018-05-14T04:06:07.469Z,99.90
2018-05-14T04:10:10.965Z,99.90
2018-05-14T04:14:14.092Z,99.90
2018-05-14T04:18:16.795Z,99.90
2018-05-14T04:22:20.350Z,99.90
2018-05-14T04:26:23.173Z,99.90
2018-05-14T04:30:26.088Z,99.90
2018-05-14T04:34:28.808Z,99.90
2018-05-14T04:38:32.461Z,99.90
2018-05-14T04:42:35.289Z,99.90
2018-05-14T04:46:38.174Z,99.90
2018-05-14T04:50:40.968Z,99.90
2018-05-14T04:54:43.730Z,99.90
2018-05-14T04:58:46.479Z,99.90
2018-05-14T05:02:49.307Z,99.90
2018-05-14T05:06:52.821Z,99.90
2018-05-14T05:10:55.623Z,99.90
2018-05-14T05:14:59.161Z,99.90
2018-05-14T05:19:01.895Z,99.90
2018-05-14T05:23:04.621Z,99.90
2018-05-14T05:27:08.159Z,99.90
2018-05-14T05:31:10.956Z,99.90
2018-05-14T05:35:13.676Z,99.90
2018-05-14T05:39:16.430Z,99.90
2018-05-14T05:43:19.943Z,99.90
2018-05-14T05:47:23.489Z,99.90
2018-05-14T05:51:26.320Z,99.90
2018-05-14T05:55:29.158Z,99.90
2018-05-14T05:59:32.750Z,99.90
2018-05-14T06:03:36.273Z,99.90
2018-05-14T06:07:39.077Z,99.90
2018-05-14T06:11:41.902Z,99.90
2018-05-14T06:15:44.698Z,99.90
2018-05-14T06:19:47.543Z,99.90
2018-05-14T06:23:57.625Z,99.90
2018-05-14T06:28:00.390Z,99.20
2018-05-14T06:32:03.955Z,98.10
2018-05-14T06:36:07.689Z,97.10
2018-05-14T06:40:10.454Z,97.10
2018-05-14T06:44:13.532Z,97.10
2018-05-14T06:48:17.088Z,95.30
2018-05-14T06:52:20.711Z,95.70
2018-05-14T06:56:24.397Z,95.10
2018-05-14T07:00:27.111Z,95.10
2018-05-14T07:04:29.943Z,94.30
2018-05-14T07:08:32.959Z,94.70
2018-05-14T07:12:36.559Z,94.20
2018-05-14T07:16:39.441Z,95.20
2018-05-14T07:20:42.947Z,94.90
2018-05-14T07:24:45.692Z,94.90
2018-05-14T07:28:49.275Z,94.80
2018-05-14T07:32:52.794Z,94.40
2018-05-14T07:36:56.313Z,94.20
2018-05-14T07:40:59.099Z,94.20
2018-05-14T07:45:02.707Z,94.40
2018-05-14T07:49:06.312Z,94.90
2018-05-14T07:53:09.031Z,94.90
2018-05-14T07:57:11.845Z,94.90
2018-05-14T08:01:14.657Z,95.00
2018-05-14T08:05:17.483Z,95.10
2018-05-14T08:09:20.211Z,94.70
2018-05-14T08:13:23.857Z,95.90
2018-05-14T08:17:26.631Z,96.20
2018-05-14T08:21:30.248Z,95.30
2018-05-14T08:25:33.767Z,95.70
2018-05-14T08:29:37.237Z,96.00
2018-05-14T08:33:40.883Z,96.30
2018-05-14T08:37:43.961Z,96.10
2018-05-14T08:41:46.875Z,96.10
2018-05-14T08:45:50.608Z,96.00
2018-05-14T08:49:53.521Z,96.00
2018-05-14T08:53:57.029Z,96.60
2018-05-14T08:58:00.630Z,96.60
2018-05-14T09:02:03.663Z,96.60
2018-05-14T09:06:06.449Z,97.10
2018-05-14T09:10:09.266Z,96.50
2018-05-14T09:14:12.466Z,96.40
2018-05-14T09:18:18.089Z,95.20
2018-05-14T09:22:21.194Z,95.20
2018-05-14T09:26:23.929Z,95.90
2018-05-14T09:30:27.394Z,96.80
2018-05-14T09:34:30.117Z,96.80
2018-05-14T09:38:33.620Z,96.60
2018-05-14T09:42:36.631Z,96.60
2018-05-14T09:46:39.421Z,97.10
2018-05-14T09:50:42.159Z,95.80
2018-05-14T09:54:45.385Z,96.20
2018-05-14T09:58:48.187Z,95.30
2018-05-14T10:02:50.904Z,94.60
2018-05-14T10:06:58.625Z,95.20
2018-05-14T10:11:01.472Z,94.90
2018-05-14T10:15:04.642Z,95.20
2018-05-14T10:19:07.402Z,94.90
2018-05-14T10:23:10.098Z,95.80
2018-05-14T10:27:12.901Z,96.00
2018-05-14T10:31:15.621Z,95.90
2018-05-14T10:35:19.145Z,95.80
2018-05-14T10:39:22.695Z,94.60
2018-05-14T10:43:25.400Z,94.30
2018-05-14T10:47:28.839Z,93.90
2018-05-14T10:51:31.574Z,92.20
2018-05-14T10:55:35.916Z,92.10
2018-05-14T10:59:38.685Z,92.10
2018-05-14T11:03:43.257Z,92.60
2018-05-14T11:07:46.030Z,92.60
2018-05-14T11:11:49.825Z,92.70
2018-05-14T11:15:52.765Z,93.00
2018-05-14T11:19:56.282Z,92.90
2018-05-14T11:23:59.822Z,93.00
2018-05-14T11:28:02.827Z,93.30
2018-05-14T11:32:06.158Z,92.40
2018-05-14T11:36:08.859Z,93.50
2018-05-14T11:40:11.585Z,93.40
2018-05-14T11:44:15.271Z,92.30
2018-05-14T11:48:18.182Z,92.70
2018-05-14T11:52:20.915Z,91.50
2018-05-14T11:56:24.770Z,92.40
2018-05-14T12:00:30.926Z,92.30
2018-05-14T12:04:34.052Z,92.40
2018-05-14T12:08:36.931Z,92.80
2018-05-14T12:12:39.661Z,92.80
2018-05-14T12:16:42.582Z,92.90
2018-05-14T12:20:45.539Z,93.10
2018-05-14T12:24:48.278Z,93.10
2018-05-14T12:28:51.532Z,93.40
2018-05-14T12:32:54.301Z,93.40
2018-05-14T12:36:58.042Z,94.00
2018-05-14T12:41:01.978Z,94.20
2018-05-14T12:45:04.765Z,94.20
2018-05-14T12:49:08.340Z,94.60
2018-05-14T12:53:11.186Z,94.60
2018-05-14T12:57:14.462Z,93.80
2018-05-14T13:01:17.144Z,94.00
2018-05-14T13:05:19.879Z,94.20
2018-05-14T13:09:22.810Z,94.40
2018-05-14T13:13:26.963Z,94.30
2018-05-14T13:17:30.127Z,93.40
2018-05-14T13:21:34.044Z,94.70
2018-05-14T13:25:36.814Z,94.80
2018-05-14T13:29:39.521Z,95.00
2018-05-14T13:33:42.394Z,95.00
2018-05-14T13:37:45.149Z,95.40
2018-05-14T13:41:47.986Z,93.80
2018-05-14T13:45:50.718Z,94.20
2018-05-14T13:49:54.251Z,94.00
2018-05-14T13:53:57.091Z,94.00
2018-05-14T13:58:00.955Z,94.10
2018-05-14T14:02:04.864Z,94.10
2018-05-14T14:06:07.904Z,94.10
2018-05-14T14:10:10.909Z,93.90
2018-05-14T14:14:13.713Z,94.40
2018-05-14T14:18:16.481Z,94.40
2018-05-14T14:22:20.156Z,93.10
2018-05-14T14:26:22.917Z,93.10
2018-05-14T14:30:25.881Z,93.10
2018-05-14T14:34:28.971Z,93.80
2018-05-14T14:38:31.711Z,93.00
2018-05-14T14:42:35.534Z,93.10
2018-05-14T14:46:38.434Z,93.10
2018-05-14T14:50:41.401Z,93.80
2018-05-14T14:54:44.742Z,94.60
2018-05-14T14:58:48.342Z,94.80
2018-05-14T15:02:53.428Z,94.70
2018-05-14T15:06:56.168Z,93.60
2018-05-14T15:10:59.031Z,94.30
2018-05-14T15:15:02.543Z,94.40
2018-05-14T15:19:05.349Z,94.90
2018-05-14T15:23:09.236Z,94.90
2018-05-14T15:27:12.737Z,94.90
2018-05-14T15:31:16.271Z,95.40
2018-05-14T15:35:19.104Z,95.30
2018-05-14T15:39:21.812Z,96.00
2018-05-14T15:43:24.544Z,95.90
2018-05-14T15:47:28.222Z,96.10
2018-05-14T15:51:30.945Z,96.10
2018-05-14T15:55:33.786Z,96.60
2018-05-14T15:59:37.569Z,97.00
2018-05-14T16:03:40.478Z,96.70
2018-05-14T16:07:44.113Z,97.10
2018-05-14T16:11:47.120Z,97.10
2018-05-14T16:15:49.974Z,97.10
2018-05-14T16:19:52.858Z,97.10
2018-05-14T16:23:55.648Z,97.00
2018-05-14T16:27:58.562Z,97.00
2018-05-14T16:32:01.304Z,97.00
2018-05-14T16:36:05.022Z,97.20
2018-05-14T16:40:08.687Z,97.00
2018-05-14T16:44:11.494Z,97.00
2018-05-14T16:48:14.285Z,97.30
2018-05-14T16:52:17.050Z,97.50
2018-05-14T16:56:19.868Z,97.50
2018-05-14T17:00:22.594Z,97.50
2018-05-14T17:04:25.531Z,97.30
2018-05-14T17:08:29.704Z,97.70
2018-05-14T17:12:32.635Z,97.70
2018-05-14T17:16:35.556Z,97.60
2018-05-14T17:20:39.053Z,97.50
2018-05-14T17:24:41.787Z,97.50
2018-05-14T17:28:44.590Z,97.60
2018-05-14T17:32:47.498Z,97.70
2018-05-14T17:36:51.332Z,97.70
2018-05-14T17:40:54.103Z,97.90
2018-05-14T17:44:56.839Z,98.00
2018-05-14T17:48:59.790Z,98.00
2018-05-14T17:53:03.491Z,98.00
2018-05-14T17:57:06.302Z,98.00
2018-05-14T18:01:09.797Z,98.20
2018-05-14T18:05:13.229Z,98.20
2018-05-14T18:09:17.175Z,98.30
2018-05-14T18:13:19.952Z,98.30
2018-05-14T18:17:27.360Z,98.30
2018-05-14T18:21:35.790Z,98.30
2018-05-14T18:25:44.279Z,98.40
2018-05-14T18:29:47.200Z,98.40
2018-05-14T18:33:50.036Z,98.30
2018-05-14T18:37:52.856Z,98.40
2018-05-14T18:41:55.597Z,98.50
2018-05-14T18:45:59.343Z,98.60
2018-05-14T18:50:02.216Z,98.60
2018-05-14T18:54:06.098Z,98.70
2018-05-14T18:58:09.156Z,98.70
2018-05-14T19:02:12.032Z,99.00
2018-05-14T19:06:15.544Z,98.90
2018-05-14T19:10:25.033Z,98.90
2018-05-14T19:14:27.765Z,98.90
2018-05-14T19:18:31.901Z,98.90
2018-05-14T19:22:41.342Z,99.00
2018-05-14T19:26:44.161Z,99.00
2018-05-14T19:30:47.922Z,98.80
2018-05-14T19:34:56.287Z,99.00
2018-05-14T19:38:59.114Z,99.10
2018-05-14T19:43:02.661Z,99.10
2018-05-14T19:47:05.419Z,99.10
2018-05-14T19:51:08.965Z,99.20
2018-05-14T19:55:11.673Z,99.20
2018-05-14T19:59:15.277Z,99.40
2018-05-14T20:03:18.038Z,99.20
2018-05-14T20:07:20.796Z,99.20
2018-05-14T20:11:23.603Z,99.30
2018-05-14T20:15:26.537Z,99.30
2018-05-14T20:19:30.054Z,99.30
2018-05-14T20:23:33.628Z,99.30
2018-05-14T20:27:36.375Z,99.30
2018-05-14T20:31:39.199Z,99.30
2018-05-14T20:35:41.921Z,99.30
2018-05-14T20:39:44.940Z,99.40
2018-05-14T20:43:47.669Z,99.30
2018-05-14T20:47:51.285Z,99.30
2018-05-14T20:51:54.781Z,99.20
2018-05-14T20:56:01.097Z,99.20
2018-05-14T21:00:04.080Z,99.20
2018-05-14T21:04:07.587Z,99.20
2018-05-14T21:08:11.201Z,99.20
2018-05-14T21:12:14.701Z,99.30
2018-05-14T21:16:17.493Z,99.20
2018-05-14T21:20:20.267Z,99.20
2018-05-14T21:24:23.066Z,99.20
2018-05-14T21:28:25.807Z,99.20
2018-05-14T21:32:29.327Z,99.10
2018-05-14T21:36:32.859Z,99.10
2018-05-14T21:40:35.670Z,99.10
2018-05-14T21:44:38.518Z,99.10
2018-05-14T21:48:41.253Z,99.10
2018-05-14T21:52:44.142Z,99.20
2018-05-14T21:56:46.913Z,99.10
2018-05-14T22:00:49.742Z,99.20
2018-05-14T22:04:52.465Z,99.20
2018-05-14T22:08:55.311Z,99.10
2018-05-14T22:12:58.046Z,99.00
2018-05-14T22:17:00.871Z,98.80
2018-05-14T22:21:03.634Z,98.80
2018-05-14T22:25:06.379Z,98.80
2018-05-14T22:29:09.133Z,98.70
2018-05-14T22:33:12.766Z,98.60
2018-05-14T22:37:15.551Z,98.70
2018-05-14T22:41:18.275Z,98.70
2018-05-14T22:45:21.125Z,98.70
2018-05-14T22:49:24.621Z,98.70
2018-05-14T22:53:27.343Z,98.60
2018-05-14T22:57:30.229Z,98.70
2018-05-14T23:01:33.766Z,98.70
2018-05-14T23:05:46.799Z,98.70
2018-05-14T23:09:53.250Z,98.70
2018-05-14T23:13:56.767Z,98.70
2018-05-14T23:18:00.329Z,98.60
2018-05-14T23:22:03.168Z,98.60
2018-05-14T23:26:09.712Z,98.70
2018-05-14T23:30:16.794Z,98.50
2018-05-14T23:34:19.524Z,98.50
2018-05-14T23:38:26.116Z,98.40
2018-05-14T23:42:29.602Z,98.40
2018-05-14T23:46:35.685Z,98.30
2018-05-14T23:50:38.751Z,98.40
2018-05-14T23:54:41.726Z,98.40
2018-05-14T23:58:45.240Z,98.40
